x

Matinicus Rock, Me (mism1) Weather Station

8:00 - Sat 25th Mar 2017 All times are EDT. -4 hours from GMT.

  • Wind
    18mph, 20mph gusts
  • Aire Temp 38°f
  • Sea Pressure 1026mb
  • Matinicus Rock, Me
  • Matinicus Rock, Me

More Historic Weather Station data

Upgrade to MSW Pro to gain access to the past 30 days of data for over 8000 Wavebouys and Weather Stations around the globe.

Join Pro

Comparision Forecast

View Surf forecast
   
sáb 03/25 8:00 18 20 mph 1026mb 38f
7:00 16 17 mph 1024.9mb 38f
6:00 18 20 mph 1024.4mb 38f
5:00 16 17 mph 1023.9mb 38f
4:00 13 14 mph 1023.9mb 38f
3:00 14 16 mph 1023.8mb 37f
2:00 3 5 mph 1023.3mb 38f
1:00 10
mph
1023.2mb 37f
12:00 9 10 mph 1022.8mb 37f
11:00 10 11 mph 1022.9mb 36f
10:00 16 17 mph 1022.6mb 35f
9:00 20 22 mph 1022.3mb 35f
8:00 21 23 mph 1021mb 35f
7:00 17 20 mph 1019.6mb 35f
6:00 20 21 mph 1018.8mb 35f
5:00 13 14 mph 1018.2mb 35f
4:00 13 14 mph 1017mb 35f
3:00 14 15 mph 1016.4mb 35f
2:00 17 18 mph 1016.8mb 35f
1:00 18 20 mph 1016.6mb 36f
12:00 17 18 mph 1016.6mb 37f
vie 03/24 11:00 17 18 mph 1016.3mb 38f
10:00 14 15 mph 1017mb 38f
9:00 24 26 mph 1017.9mb 38f
8:00 26 28 mph 1018.4mb 38f
7:00 32 37 mph 1018.7mb 36f
6:00 34 39 mph 1020mb 35f
5:00 36 39 mph 1021.4mb 34f
4:00 33 38 mph 1022.7mb 33f
3:00 33 36 mph 1023.9mb 33f
2:00 30 32 mph 1025.6mb 31f
1:00 32 36 mph 1028mb 31f
12:00 29 32 mph 1029mb 30f
11:00 31 33 mph 1030.2mb 33f
10:00 23 24 mph 1030.3mb 32f
9:00 21 23 mph 1031.3mb 32f
8:00 16 18 mph 1031.2mb 31f
7:00 9 10 mph 1031.8mb 30f
6:00 5 8 mph 1031.9mb 29f
5:00 6 8 mph 1032.2mb 29f
4:00 6 7 mph 1031.7mb 29f
3:00 7 10 mph 1032mb 28f
2:00 11 14 mph 1032.6mb 28f
1:00 10 11 mph 1032.3mb 27f
12:00 15 17 mph 1032.2mb 27f
jue 03/23 11:00 20 22 mph 1031.8mb 28f
10:00 22 25 mph 1031.4mb 28f
9:00 28 30 mph 1030.8mb 29f
8:00 24 26 mph 1029.2mb 30f
7:00 24 29 mph 1027.7mb 30f
6:00 32 34 mph 1026.8mb 31f
5:00 22 25 mph 1026.5mb 30f
4:00 25 28 mph 1026.1mb 29f
3:00 24 26 mph 1025.7mb 28f
2:00 22 24 mph 1025.7mb 26f
1:00 26 30 mph 1026.3mb 24f
12:00 29 32 mph 1026.6mb 22f
11:00 22 26 mph 1027mb 19f
10:00 28 30 mph 1026.7mb 18f
9:00 34 38 mph 1026.6mb 17f
8:00 31 34 mph 1026.5mb 17f
7:00 34 38 mph 1025.4mb 15f
6:00 36 40 mph 1024.3mb 16f
5:00 37 39 mph 1023.3mb 16f
4:00 38 44 mph 1022.6mb 17f
3:00 41 49 mph 1021.8mb 17f
2:00 44 49 mph 1021.3mb 18f
1:00 45 49 mph 1020.6mb 18f
12:00 41 47 mph 1020mb 18f
mié 03/22 11:00 45 54 mph 1019.3mb 18f
10:00 44 53 mph 1018.4mb 18f
9:00 45 52 mph 1017.4mb 19f
8:00 44 49 mph 1016mb 20f
7:00 44 48 mph 1014.6mb 20f
6:00 44 47 mph 1013mb 21f
5:00 45 51 mph 1011.2mb 22f
4:00 32 34 mph 1010.4mb 23f
3:00 39 44 mph 1009.5mb 23f
2:00 38 41 mph 1008.6mb 24f
1:00 33 38 mph 1008mb 24f
12:00 36 40 mph 1007.2mb 25f
11:00 39 43 mph 1006mb 26f
10:00 43 47 mph 1004.3mb 30f
9:00 6
mph
1003.9mb 38f
8:00 9
mph
1003.7mb 39f
7:00 7
mph
1004mb 38f
6:00 6
mph
1004.2mb 38f
5:00 14 15 mph 1004.5mb 38f
4:00 13 14 mph 1004.6mb 38f
3:00 9 10 mph 1005.2mb 38f
2:00 3 6 mph 1005.6mb 38f